Leon Valley, Texas
Current Conditions -  °F | °C
As of 7:55 PM on Thursday 20 Nov 2014 (Local Time) from KSKF Reporting Station
Haze Haze  
Wind Chill: 63°   Ceiling: 1400
Heat Index: 63°   Visibility: 3mi
Dew Point: 63°   Wind: 2mph
Humidity: 100%   Direction: 360°N
Pressure: 30.02"   Gusts: NA
Location:  29.5262°N, 98.7174°W
Report Text: KSKF 210155Z 36002KT 3SM R15/4000FT BR BKN014 BKN022 OVC028 17/17 A3002 RMK SLP164
Loading
Personal Weather Stations






























Interactive Weather Map New forecast layout! Learn more

10-Day Weather Forecast

Advertisements
Track Severe Weather on mobile